Time;durP1;ratioP1;P1;durP2;ratioP2;P2;SDS_P1;SDS_P2;PMS_P1;PMS_P2;Temp;Humidity;BMP_temperature;BMP_pressure;BME280_temperature;BME280_humidity;BME280_pressure;Samples;Min_cycle;Max_cycle;Signal;HPM_P1;HPM_P2
2022/10/24 00:01:28;;;;;;;44.95;4.72;;;;;;;20.14;100.00;97629.41;5016319;28;20048;-60
2022/10/24 00:03:54;;;;;;;41.50;5.20;;;;;;;20.43;100.00;97639.28;5018575;28;20021;-56
2022/10/24 00:06:19;;;;;;;33.97;3.97;;;;;;;19.83;100.00;97632.03;5016723;28;20033;-57
2022/10/24 00:08:46;;;;;;;30.65;3.92;;;;;;;19.79;100.00;97633.25;5015343;28;20116;-54
2022/10/24 00:11:17;;;;;;;31.77;3.80;;;;;;;20.19;100.00;97618.41;5019395;28;20037;-56
2022/10/24 00:13:43;;;;;;;32.72;4.18;;;;;;;20.63;100.00;97612.91;5020301;28;20180;-57
2022/10/24 00:16:09;;;;;;;36.60;4.55;;;;;;;20.45;100.00;97631.22;5015602;28;20120;-54
2022/10/24 00:18:34;;;;;;;29.55;3.97;;;;;;;20.62;100.00;97637.72;5015716;28;20021;-56
2022/10/24 00:21:00;;;;;;;38.70;4.85;;;;;;;20.29;100.00;97632.56;5018427;28;20441;-55
2022/10/24 00:23:25;;;;;;;33.67;4.43;;;;;;;20.34;100.00;97637.44;5020457;28;20034;-54
2022/10/24 00:25:50;;;;;;;29.30;4.03;;;;;;;20.70;100.00;97629.94;5018890;28;20094;-55
2022/10/24 00:28:16;;;;;;;36.00;4.63;;;;;;;20.72;100.00;97633.28;5015536;28;20033;-57
2022/10/24 00:30:41;;;;;;;29.98;3.42;;;;;;;20.31;100.00;97635.03;5017246;28;20585;-56
2022/10/24 00:33:06;;;;;;;41.55;5.15;;;;;;;20.23;100.00;97623.31;5020086;28;20115;-57
2022/10/24 00:35:32;;;;;;;26.60;3.70;;;;;;;20.43;100.00;97623.41;5017923;28;20157;-56
2022/10/24 00:37:57;;;;;;;35.72;4.32;;;;;;;20.52;100.00;97622.59;5016998;28;20026;-55
2022/10/24 00:40:23;;;;;;;38.90;4.82;;;;;;;20.39;100.00;97632.59;5019852;28;20087;-57
2022/10/24 00:42:49;;;;;;;29.83;4.00;;;;;;;20.24;100.00;97640.06;5019305;28;20025;-56
2022/10/24 00:45:36;;;;;;;45.38;5.07;;;;;;;19.64;100.00;97653.03;5020612;28;20664;-58
2022/10/24 00:48:01;;;;;;;34.65;4.13;;;;;;;19.56;100.00;97639.63;5018408;28;20056;-56
2022/10/24 00:50:27;;;;;;;41.45;5.00;;;;;;;19.40;100.00;97638.22;5012180;28;20778;-56
2022/10/24 00:52:53;;;;;;;33.60;4.45;;;;;;;19.74;100.00;97638.09;5012583;28;20021;-56
2022/10/24 00:55:20;;;;;;;37.03;4.40;;;;;;;20.27;100.00;97652.19;5013811;28;20109;-54
2022/10/24 00:57:53;;;;;;;31.02;3.75;;;;;;;19.81;100.00;97649.00;5015497;28;20120;-57
2022/10/24 01:00:28;;;;;;;38.25;4.70;;;;;;;19.99;100.00;97651.91;5016572;28;20168;-54
2022/10/24 01:02:54;;;;;;;41.78;4.45;;;;;;;20.29;100.00;97650.22;5020299;28;20009;-58
2022/10/24 01:05:23;;;;;;;33.15;4.20;;;;;;;20.19;100.00;97650.19;5017291;28;20075;-57
2022/10/24 01:08:20;;;;;;;34.67;4.15;;;;;;;19.54;100.00;97638.91;5015279;28;20065;-55
2022/10/24 01:11:05;;;;;;;34.00;4.85;;;;;;;19.96;100.00;97646.84;5013990;28;20034;-56
2022/10/24 01:13:36;;;;;;;40.70;4.85;;;;;;;20.09;100.00;97647.50;5013821;28;20029;-58
2022/10/24 01:16:22;;;;;;;29.30;3.87;;;;;;;20.13;100.00;97653.38;5018494;28;20044;-55
2022/10/24 01:19:06;;;;;;;46.63;5.22;;;;;;;20.34;100.00;97661.28;5014810;28;20092;-55
2022/10/24 01:21:42;;;;;;;37.22;4.35;;;;;;;20.19;100.00;97661.63;5013175;28;20043;-56
2022/10/24 01:24:32;;;;;;;36.55;4.25;;;;;;;20.28;100.00;97661.81;5017217;28;20045;-57
2022/10/24 01:26:57;;;;;;;36.90;4.43;;;;;;;20.15;100.00;97665.50;5015684;28;20041;-55
2022/10/24 01:29:34;;;;;;;35.22;4.22;;;;;;;20.22;100.00;97664.00;5017272;28;20468;-56
2022/10/24 01:32:05;;;;;;;38.83;5.13;;;;;;;20.10;100.00;97670.34;5016559;28;20104;-56
2022/10/24 01:34:49;;;;;;;40.65;4.70;;;;;;;19.70;100.00;97665.75;5014484;28;20026;-57
2022/10/24 01:37:22;;;;;;;43.75;5.47;;;;;;;20.21;100.00;97667.63;5017399;28;20069;-55
2022/10/24 01:39:52;;;;;;;40.67;5.05;;;;;;;19.45;100.00;97665.16;5017690;28;20064;-56
2022/10/24 01:42:22;;;;;;;30.92;3.70;;;;;;;19.53;100.00;97671.63;5016114;28;20025;-58
2022/10/24 01:44:51;;;;;;;34.45;4.13;;;;;;;20.23;100.00;97665.66;5014670;28;20022;-55
2022/10/24 01:47:23;;;;;;;41.15;5.32;;;;;;;20.54;100.00;97668.31;5013387;28;20184;-58
2022/10/24 01:49:56;;;;;;;35.73;4.20;;;;;;;19.60;100.00;97662.19;5024145;28;20064;-56
2022/10/24 01:52:23;;;;;;;33.45;4.30;;;;;;;20.03;100.00;97666.53;5024130;28;20037;-57
2022/10/24 01:54:50;;;;;;;34.45;4.18;;;;;;;20.00;100.00;97661.53;5022035;28;20026;-57
2022/10/24 01:57:16;;;;;;;43.03;5.13;;;;;;;19.65;100.00;97654.72;5021625;28;20072;-55
2022/10/24 01:59:48;;;;;;;34.70;4.05;;;;;;;19.55;100.00;97638.75;5023802;28;20069;-57
2022/10/24 02:02:28;;;;;;;43.92;4.93;;;;;;;19.33;100.00;97638.88;5022798;28;20086;-55
2022/10/24 02:05:10;;;;;;;34.55;4.40;;;;;;;19.91;100.00;97649.06;5018396;28;20437;-57
2022/10/24 02:07:37;;;;;;;30.15;3.95;;;;;;;19.55;100.00;97638.75;5018909;28;20098;-58
2022/10/24 02:10:09;;;;;;;39.42;4.15;;;;;;;19.83;100.00;97644.41;5017200;28;20064;-56
2022/10/24 02:12:39;;;;;;;27.17;3.70;;;;;;;20.20;100.00;97643.94;5024405;28;20625;-59
2022/10/24 02:15:23;;;;;;;31.77;3.88;;;;;;;19.92;100.00;97650.75;5025153;28;20037;-58
2022/10/24 02:17:48;;;;;;;37.85;4.57;;;;;;;19.94;100.00;97646.16;5022384;28;20049;-57
2022/10/24 02:20:14;;;;;;;34.22;4.30;;;;;;;19.81;100.00;97643.72;5021265;28;20107;-56
2022/10/24 02:22:50;;;;;;;32.00;3.95;;;;;;;19.48;100.00;97642.06;5016398;28;20037;-57
2022/10/24 02:25:22;;;;;;;34.53;4.15;;;;;;;19.34;100.00;97645.84;5014432;28;20025;-57
2022/10/24 02:27:54;;;;;;;33.40;4.15;;;;;;;19.35;100.00;97643.06;5016728;28;20034;-56
2022/10/24 02:30:22;;;;;;;36.92;4.75;;;;;;;19.05;100.00;97636.69;5021543;28;20053;-55
2022/10/24 02:32:52;;;;;;;34.72;3.90;;;;;;;18.76;100.00;97633.72;5017279;28;20038;-55
2022/10/24 02:35:21;;;;;;;33.53;3.97;;;;;;;18.96;100.00;97632.16;5017502;28;20537;-55
2022/10/24 02:37:51;;;;;;;31.60;4.10;;;;;;;19.14;100.00;97629.81;5021774;28;20021;-57
2022/10/24 02:40:19;;;;;;;35.92;3.90;;;;;;;19.12;100.00;97628.28;5020070;28;20111;-56
2022/10/24 02:42:47;;;;;;;38.13;4.60;;;;;;;19.56;100.00;97624.59;5023263;28;20423;-57
2022/10/24 02:45:14;;;;;;;34.58;4.55;;;;;;;19.49;100.00;97625.22;5018576;28;20018;-56
2022/10/24 02:47:42;;;;;;;35.38;4.30;;;;;;;19.23;100.00;97626.41;5017821;28;20084;-56
2022/10/24 02:50:09;;;;;;;32.25;4.35;;;;;;;19.25;100.00;97626.28;5015200;28;20032;-55
2022/10/24 02:52:36;;;;;;;29.60;3.78;;;;;;;19.59;100.00;97631.41;5024138;28;20116;-55
2022/10/24 02:55:03;;;;;;;28.63;3.78;;;;;;;19.30;100.00;97634.69;5020943;28;20053;-55
2022/10/24 02:57:28;;;;;;;33.15;4.50;;;;;;;19.57;100.00;97642.13;5017058;28;20044;-58
2022/10/24 02:59:54;;;;;;;38.05;4.63;;;;;;;19.80;100.00;97648.16;5021383;28;20037;-56
2022/10/24 03:02:19;;;;;;;36.28;4.15;;;;;;;19.34;100.00;97638.75;5017170;28;20572;-58
2022/10/24 03:04:45;;;;;;;36.38;4.57;;;;;;;19.15;100.00;97641.22;5019862;28;20029;-55
2022/10/24 03:07:10;;;;;;;45.63;4.88;;;;;;;19.11;100.00;97634.50;5024998;28;20172;-57
2022/10/24 03:09:35;;;;;;;27.70;3.90;;;;;;;19.13;100.00;97632.56;5019764;28;20064;-55
2022/10/24 03:12:02;;;;;;;39.15;4.80;;;;;;;19.31;100.00;97633.72;5021091;28;20041;-55
2022/10/24 03:14:27;;;;;;;36.50;4.25;;;;;;;19.10;100.00;97632.81;5017467;28;20120;-55
2022/10/24 03:16:52;;;;;;;33.42;4.45;;;;;;;19.15;100.00;97643.88;5017589;28;20120;-55
2022/10/24 03:19:18;;;;;;;37.40;4.38;;;;;;;19.06;100.00;97654.25;5026469;28;20456;-57
2022/10/24 03:21:43;;;;;;;24.75;3.50;;;;;;;19.62;100.00;97644.38;5018635;28;20133;-58
2022/10/24 03:24:09;;;;;;;35.83;4.68;;;;;;;18.89;100.00;97646.81;5019856;28;20912;-55
2022/10/24 03:26:34;;;;;;;32.53;4.07;;;;;;;19.38;100.00;97642.81;5019277;28;20045;-57
2022/10/24 03:28:59;;;;;;;39.20;4.28;;;;;;;18.89;100.00;97641.53;5017836;28;20057;-54
2022/10/24 03:31:25;;;;;;;31.60;3.75;;;;;;;19.20;100.00;97633.75;5018559;28;20033;-55
2022/10/24 03:33:50;;;;;;;38.03;4.40;;;;;;;19.23;100.00;97634.34;5021782;28;20052;-55
2022/10/24 03:36:16;;;;;;;39.75;4.68;;;;;;;19.50;100.00;97632.19;5021117;28;20508;-55
2022/10/24 03:38:41;;;;;;;29.75;4.18;;;;;;;19.10;100.00;97627.53;5016237;28;20510;-55
2022/10/24 03:41:07;;;;;;;38.30;4.72;;;;;;;18.98;100.00;97630.22;5017957;28;20040;-55
2022/10/24 03:43:32;;;;;;;24.48;3.10;;;;;;;18.95;100.00;97641.06;5016916;28;20028;-56
2022/10/24 03:45:58;;;;;;;42.42;5.13;;;;;;;19.01;100.00;97651.13;5019662;28;20605;-56
2022/10/24 03:48:24;;;;;;;36.75;4.82;;;;;;;19.25;100.00;97652.72;5018296;28;20048;-56
2022/10/24 03:50:49;;;;;;;34.28;4.30;;;;;;;19.00;100.00;97644.13;5017930;28;20116;-57
2022/10/24 03:53:14;;;;;;;30.00;4.05;;;;;;;19.05;100.00;97644.63;5019573;28;20025;-55
2022/10/24 03:55:40;;;;;;;34.03;4.57;;;;;;;18.96;100.00;97652.47;5022873;28;20041;-55
2022/10/24 03:58:05;;;;;;;33.25;3.97;;;;;;;19.22;100.00;97647.69;5021035;28;20035;-55
2022/10/24 04:00:33;;;;;;;40.95;4.95;;;;;;;19.71;100.00;97651.56;5016765;28;20120;-55
2022/10/24 04:02:58;;;;;;;31.45;4.18;;;;;;;19.00;100.00;97638.84;5017536;28;20433;-58
2022/10/24 04:05:24;;;;;;;44.47;5.45;;;;;;;19.13;100.00;97632.56;5016746;28;20549;-58
2022/10/24 04:07:49;;;;;;;34.22;4.35;;;;;;;18.27;100.00;97627.06;5015746;28;20048;-57
2022/10/24 04:10:15;;;;;;;35.33;5.05;;;;;;;18.32;100.00;97626.69;5015758;28;20028;-59
2022/10/24 04:12:40;;;;;;;44.38;5.10;;;;;;;18.84;100.00;97627.88;5019501;28;20440;-58
2022/10/24 04:15:06;;;;;;;32.58;4.10;;;;;;;18.64;100.00;97624.16;5019090;28;20033;-55
2022/10/24 04:17:32;;;;;;;38.90;4.93;;;;;;;18.83;100.00;97623.53;5017741;28;20075;-55
2022/10/24 04:19:57;;;;;;;30.70;3.92;;;;;;;18.81;100.00;97617.53;5018963;28;20112;-56
2022/10/24 04:22:22;;;;;;;33.13;4.68;;;;;;;19.28;100.00;97620.75;5018197;28;20084;-56
2022/10/24 04:24:48;;;;;;;38.38;4.75;;;;;;;19.23;100.00;97633.50;5019619;28;20034;-56
2022/10/24 04:27:13;;;;;;;37.85;4.45;;;;;;;18.76;100.00;97631.06;5020156;28;20568;-55
2022/10/24 04:29:38;;;;;;;33.22;4.10;;;;;;;19.31;100.00;97639.00;5023328;28;20644;-55
2022/10/24 04:32:04;;;;;;;29.52;3.83;;;;;;;18.91;100.00;97634.31;5015207;28;20732;-55
2022/10/24 04:34:32;;;;;;;40.15;4.80;;;;;;;18.87;100.00;97630.25;5016697;28;20091;-55
2022/10/24 04:36:57;;;;;;;41.70;5.53;;;;;;;19.04;100.00;97629.75;5017567;28;20123;-58
2022/10/24 04:39:23;;;;;;;36.60;4.40;;;;;;;18.58;100.00;97628.13;5015295;28;20647;-59
2022/10/24 04:41:48;;;;;;;42.20;5.18;;;;;;;18.69;100.00;97628.09;5016625;28;20681;-57
2022/10/24 04:44:13;;;;;;;34.85;4.72;;;;;;;18.75;100.00;97633.84;5017224;28;20025;-57
2022/10/24 04:46:39;;;;;;;29.02;4.00;;;;;;;18.95;100.00;97633.13;5019906;28;20045;-58
2022/10/24 04:49:04;;;;;;;39.88;4.97;;;;;;;18.88;100.00;97639.88;5020838;28;20029;-55
2022/10/24 04:51:30;;;;;;;30.50;4.00;;;;;;;18.64;100.00;97630.28;5017220;28;20029;-55
2022/10/24 04:53:55;;;;;;;38.90;4.88;;;;;;;19.12;100.00;97630.91;5019519;28;20402;-55
2022/10/24 04:56:21;;;;;;;38.53;4.75;;;;;;;19.42;100.00;97628.38;5017359;28;20099;-57
2022/10/24 04:58:47;;;;;;;31.65;4.68;;;;;;;19.55;100.00;97635.28;5015252;28;20444;-56
2022/10/24 05:01:12;;;;;;;36.78;5.00;;;;;;;19.47;100.00;97641.22;5016629;28;20126;-56
2022/10/24 05:03:38;;;;;;;36.28;4.40;;;;;;;19.14;100.00;97639.56;5018161;28;20060;-57
2022/10/24 05:06:03;;;;;;;41.22;4.95;;;;;;;18.98;100.00;97624.94;5014729;28;20045;-57
2022/10/24 05:08:29;;;;;;;32.47;4.72;;;;;;;18.97;100.00;97617.97;5015110;28;20943;-58
2022/10/24 05:10:54;;;;;;;33.00;5.15;;;;;;;19.02;100.00;97626.38;5021044;28;20022;-59
2022/10/24 05:13:19;;;;;;;44.83;5.40;;;;;;;19.06;100.00;97611.13;5019217;28;20022;-56
2022/10/24 05:15:45;;;;;;;36.33;4.82;;;;;;;19.81;100.00;97623.41;5019872;28;20065;-56
2022/10/24 05:18:11;;;;;;;32.72;4.40;;;;;;;19.53;100.00;97614.25;5016531;28;20148;-56
2022/10/24 05:20:36;;;;;;;37.60;4.70;;;;;;;18.98;100.00;97619.66;5016698;28;20578;-56
2022/10/24 05:23:02;;;;;;;30.70;4.15;;;;;;;18.65;100.00;97624.00;5015531;28;20647;-57
2022/10/24 05:25:28;;;;;;;40.17;5.25;;;;;;;19.28;100.00;97620.75;5015144;28;20041;-57
2022/10/24 05:27:53;;;;;;;36.47;4.75;;;;;;;19.14;100.00;97615.75;5014185;28;20061;-57
2022/10/24 05:30:18;;;;;;;39.60;5.15;;;;;;;19.17;100.00;97607.56;5014738;28;20068;-56
2022/10/24 05:32:44;;;;;;;29.42;3.92;;;;;;;18.92;100.00;97609.59;5018614;28;20025;-56
2022/10/24 05:35:10;;;;;;;37.35;4.80;;;;;;;19.35;100.00;97613.97;5014008;28;20033;-58
2022/10/24 05:37:37;;;;;;;36.58;5.05;;;;;;;19.53;100.00;97613.41;5014078;28;20080;-56
2022/10/24 05:40:04;;;;;;;30.52;4.22;;;;;;;19.38;100.00;97610.25;5013097;28;20156;-56
2022/10/24 05:42:30;;;;;;;43.90;5.50;;;;;;;19.75;100.00;97608.03;5015740;28;20060;-58
2022/10/24 05:44:55;;;;;;;35.30;5.85;;;;;;;19.42;100.00;97614.31;5018250;28;20025;-56
2022/10/24 05:47:20;;;;;;;41.97;5.55;;;;;;;19.22;100.00;97605.38;5017433;28;20425;-58
2022/10/24 05:49:46;;;;;;;41.78;5.88;;;;;;;19.32;100.00;97602.81;5016835;28;20021;-57
2022/10/24 05:52:11;;;;;;;34.38;5.43;;;;;;;19.41;100.00;97594.13;5014225;28;20152;-57
2022/10/24 05:54:36;;;;;;;37.13;5.65;;;;;;;19.81;100.00;97596.94;5011923;28;20034;-55
2022/10/24 05:57:02;;;;;;;32.95;5.32;;;;;;;19.96;100.00;97604.50;5012463;28;20044;-55
2022/10/24 05:59:27;;;;;;;36.47;5.45;;;;;;;19.80;100.00;97599.69;5016229;28;20029;-55
2022/10/24 06:01:52;;;;;;;46.33;6.28;;;;;;;19.22;100.00;97589.53;5019339;28;20132;-55
2022/10/24 06:04:18;;;;;;;41.17;5.50;;;;;;;19.32;100.00;97601.03;5005137;28;20415;-55
2022/10/24 06:06:44;;;;;;;41.03;5.45;;;;;;;18.98;100.00;97597.66;5016724;28;20478;-58
2022/10/24 06:09:10;;;;;;;32.65;4.68;;;;;;;18.86;100.00;97588.97;5014858;28;20037;-57
2022/10/24 06:11:36;;;;;;;33.55;5.15;;;;;;;19.04;100.00;97592.72;5011560;28;20050;-56
2022/10/24 06:14:02;;;;;;;50.00;5.88;;;;;;;19.01;100.00;97597.44;5016317;28;20048;-57
2022/10/24 06:16:29;;;;;;;37.33;4.53;;;;;;;18.85;100.00;97597.84;5018355;28;20569;-55
2022/10/24 06:18:55;;;;;;;51.58;6.35;;;;;;;19.67;100.00;97605.16;5014961;28;20034;-57
2022/10/24 06:21:21;;;;;;;48.20;6.15;;;;;;;19.56;100.00;97607.88;5014865;28;20042;-57
2022/10/24 06:23:46;;;;;;;33.05;5.28;;;;;;;19.98;100.00;97607.88;5017134;28;20029;-57
2022/10/24 06:26:13;;;;;;;49.30;8.05;;;;;;;20.04;100.00;97612.63;5016593;28;20515;-58
2022/10/24 06:28:39;;;;;;;34.05;5.13;;;;;;;19.78;100.00;97623.66;5015633;28;20022;-59
2022/10/24 06:31:06;;;;;;;36.38;5.40;;;;;;;19.99;100.00;97633.38;5017167;28;20057;-57
2022/10/24 06:33:32;;;;;;;30.38;4.22;;;;;;;20.14;100.00;97632.03;5013144;28;20029;-61
2022/10/24 06:36:03;;;;;;;32.35;4.65;;;;;;;20.07;100.00;97638.88;5019247;28;20038;-57
2022/10/24 06:38:29;;;;;;;34.75;4.53;;;;;;;20.54;100.00;97631.22;5017083;28;20647;-59
2022/10/24 06:40:54;;;;;;;27.90;3.88;;;;;;;20.50;100.00;97635.13;5023823;28;20033;-60
2022/10/24 06:43:19;;;;;;;41.22;5.38;;;;;;;20.12;100.00;97631.34;5018851;28;20018;-60
2022/10/24 06:45:45;;;;;;;33.97;4.60;;;;;;;20.35;100.00;97633.84;5019821;28;20056;-59
2022/10/24 06:48:10;;;;;;;34.25;4.65;;;;;;;20.31;100.00;97635.91;5016565;28;20033;-57
2022/10/24 06:50:39;;;;;;;36.58;5.68;;;;;;;20.55;100.00;97627.63;5019594;28;20538;-58
2022/10/24 06:53:05;;;;;;;36.65;4.65;;;;;;;20.39;100.00;97637.88;5018146;28;20543;-59
2022/10/24 06:55:30;;;;;;;38.33;5.07;;;;;;;20.31;100.00;97635.03;5017391;28;20030;-59
2022/10/24 06:57:56;;;;;;;33.25;4.28;;;;;;;20.74;100.00;97631.34;5019524;28;20572;-57
2022/10/24 07:00:21;;;;;;;37.47;4.97;;;;;;;20.49;100.00;97622.84;5023484;28;20057;-60
2022/10/24 07:02:46;;;;;;;26.02;3.80;;;;;;;20.05;100.00;97624.91;5023276;28;20994;-58
2022/10/24 07:05:13;;;;;;;43.38;5.53;;;;;;;20.50;100.00;97623.69;5018008;28;20050;-58
2022/10/24 07:07:40;;;;;;;33.50;4.53;;;;;;;20.68;100.00;97631.88;5021788;28;20108;-57
2022/10/24 07:10:06;;;;;;;32.72;4.75;;;;;;;21.25;100.00;97624.97;5015479;28;20083;-58
2022/10/24 07:12:32;;;;;;;42.05;5.25;;;;;;;21.16;100.00;97625.81;5017977;28;20491;-58
2022/10/24 07:14:57;;;;;;;32.70;4.95;;;;;;;21.52;100.00;97639.38;5019346;28;20036;-59
2022/10/24 07:17:23;;;;;;;28.75;4.70;;;;;;;21.75;100.00;97639.91;5021163;28;20137;-58
2022/10/24 07:19:55;;;;;;;32.88;4.45;;;;;;;22.01;100.00;97648.09;5021125;28;20116;-57
2022/10/24 07:22:20;;;;;;;;;;;;;;;21.92;100.00;97655.09;5018793;28;20530;-58
2022/10/24 07:24:54;;;;;;;43.30;5.30;;;;;;;22.17;100.00;97657.31;5021144;28;19913;-58
2022/10/24 07:27:20;;;;;;;46.85;5.30;;;;;;;22.30;100.00;97671.13;5020494;28;20063;-59
2022/10/24 07:29:45;;;;;;;35.67;5.18;;;;;;;22.12;100.00;97686.94;5012930;28;20776;-58
2022/10/24 07:32:11;;;;;;;31.48;4.40;;;;;;;21.84;100.00;97694.00;5015061;28;20049;-58
2022/10/24 07:34:38;;;;;;;32.97;4.63;;;;;;;22.01;100.00;97711.00;5014972;28;20061;-56
2022/10/24 07:37:03;;;;;;;33.10;5.03;;;;;;;21.47;100.00;97729.19;5018321;28;20759;-58
2022/10/24 07:39:28;;;;;;;27.30;4.22;;;;;;;21.68;100.00;97759.06;5019534;28;20629;-60
2022/10/24 07:41:54;;;;;;;37.15;5.45;;;;;;;21.03;100.00;97797.59;5017867;28;20557;-58
2022/10/24 07:44:19;;;;;;;50.22;5.45;;;;;;;22.20;100.00;97806.59;5016688;28;20482;-59
2022/10/24 07:46:44;;;;;;;40.17;5.70;;;;;;;23.36;100.00;97844.56;5014200;28;20040;-59
2022/10/24 07:49:10;;;;;;;113.47;7.60;;;;;;;60.08;93.08;97910.19;5016629;28;20036;-60
2022/10/24 07:51:35;;;;;;;37.78;5.50;;;;;;;34.98;57.92;97854.09;5016540;28;20636;-58
2022/10/24 07:54:01;;;;;;;49.85;6.95;;;;;;;35.36;55.78;97828.66;5013899;28;20037;-57
2022/10/24 07:56:26;;;;;;;49.05;6.75;;;;;;;34.53;57.89;97829.88;5019157;28;20033;-59
2022/10/24 07:58:52;;;;;;;49.25;7.50;;;;;;;33.92;58.26;97845.66;5015552;28;20018;-58
2022/10/24 08:01:20;;;;;;;57.60;9.50;;;;;;;32.79;61.46;97868.41;5015529;28;20190;-58
2022/10/24 08:03:46;;;;;;;38.70;5.97;;;;;;;32.15;61.85;97844.63;5016608;28;20496;-59
2022/10/24 08:06:14;;;;;;;76.15;16.45;;;;;;;32.33;60.51;97839.50;5012463;28;20032;-59
2022/10/24 08:08:40;;;;;;;42.70;6.53;;;;;;;32.76;61.47;97833.72;5020825;28;20048;-58
2022/10/24 08:11:10;;;;;;;42.47;6.25;;;;;;;32.98;59.73;97844.28;5016072;28;20540;-58
2022/10/24 08:13:35;;;;;;;50.47;7.10;;;;;;;32.31;61.25;97854.22;5020999;28;20539;-58
2022/10/24 08:16:04;;;;;;;68.60;8.75;;;;;;;32.80;59.70;97834.94;5020112;28;20124;-58
2022/10/24 08:18:29;;;;;;;52.08;7.35;;;;;;;33.06;60.24;97825.13;5020536;28;20113;-59
2022/10/24 08:20:59;;;;;;;52.05;6.97;;;;;;;33.52;58.32;97829.59;5021496;28;20117;-59
2022/10/24 08:23:25;;;;;;;56.60;6.60;;;;;;;33.54;55.44;97810.44;5016847;28;20021;-58
2022/10/24 08:25:51;;;;;;;49.83;6.75;;;;;;;33.42;56.36;97810.31;5015976;28;20408;-58
2022/10/24 08:28:16;;;;;;;47.28;7.13;;;;;;;32.95;58.13;97791.50;5018574;28;20037;-60
2022/10/24 08:30:41;;;;;;;57.58;12.05;;;;;;;32.24;59.39;97792.13;5016841;28;20033;-59
2022/10/24 08:33:07;;;;;;;50.25;8.57;;;;;;;32.57;58.16;97796.72;5016376;28;20104;-57
2022/10/24 08:35:32;;;;;;;55.78;8.55;;;;;;;31.75;60.03;97780.66;5018156;28;21021;-59
2022/10/24 08:37:58;;;;;;;54.90;7.45;;;;;;;30.60;64.54;97769.47;5018955;28;20047;-58
2022/10/24 08:40:23;;;;;;;50.03;7.00;;;;;;;30.49;64.85;97754.72;5018057;28;20550;-57
2022/10/24 08:42:49;;;;;;;64.88;10.20;;;;;;;30.67;65.98;97723.75;5015586;28;20029;-57
2022/10/24 08:45:25;;;;;;;44.22;7.20;;;;;;;30.34;66.08;97709.06;5012873;28;20083;-59
2022/10/24 08:48:18;;;;;;;52.30;6.60;;;;;;;30.36;68.69;97695.41;5015634;28;20025;-58
2022/10/24 08:50:48;;;;;;;52.92;7.32;;;;;;;30.16;69.02;97700.63;5014229;28;20099;-57
2022/10/24 08:53:26;;;;;;;44.55;6.13;;;;;;;30.08;68.13;97704.28;5015500;28;20025;-58
2022/10/24 08:55:53;;;;;;;47.08;6.63;;;;;;;29.31;76.74;97705.78;5017168;28;20034;-58
2022/10/24 08:58:24;;;;;;;46.25;6.65;;;;;;;28.70;78.06;97681.88;5017997;28;20030;-58
2022/10/24 09:00:52;;;;;;;56.10;8.60;;;;;;;29.38;83.56;97676.31;5017974;28;20029;-57
2022/10/24 09:03:41;;;;;;;55.10;7.57;;;;;;;29.19;82.53;97677.78;5018067;28;20251;-59
2022/10/24 09:06:18;;;;;;;71.38;8.68;;;;;;;29.48;81.43;97686.75;5015572;28;20468;-57
2022/10/24 09:09:11;;;;;;;41.80;6.10;;;;;;;31.45;71.66;97704.63;5017772;28;20032;-57
2022/10/24 09:11:40;;;;;;;54.28;7.28;;;;;;;31.20;69.43;97691.72;5014282;28;20096;-57
2022/10/24 09:14:15;;;;;;;50.45;7.00;;;;;;;31.56;67.83;97701.41;5016702;28;20095;-57
2022/10/24 09:16:43;;;;;;;49.53;7.78;;;;;;;30.45;68.82;97704.16;5014447;28;20037;-59
2022/10/24 09:19:21;;;;;;;45.83;7.22;;;;;;;31.80;68.27;97709.91;5014536;28;20112;-58
2022/10/24 09:21:47;;;;;;;43.42;6.35;;;;;;;31.83;65.97;97712.19;5012529;28;20048;-59
2022/10/24 09:24:41;;;;;;;53.75;6.85;;;;;;;31.46;66.47;97720.59;5016286;28;20022;-59
2022/10/24 09:27:13;;;;;;;54.63;6.53;;;;;;;32.74;61.91;97725.06;5017352;28;20044;-60
2022/10/24 09:29:38;;;;;;;;;;;;;;;32.33;62.04;97723.47;5013559;28;20018;-59
2022/10/24 09:32:12;;;;;;;40.30;5.20;;;;;;;31.70;66.42;97730.00;5017050;28;19927;-58
2022/10/24 09:34:37;;;;;;;37.40;4.75;;;;;;;32.09;65.07;97738.38;5018513;28;20076;-58
2022/10/24 09:37:02;;;;;;;44.05;5.35;;;;;;;30.30;68.39;97725.78;5014096;28;20038;-58
2022/10/24 09:39:33;;;;;;;54.47;7.25;;;;;;;30.14;70.59;97687.38;5021593;28;20649;-58
2022/10/24 09:42:00;;;;;;;37.67;5.50;;;;;;;28.72;78.45;97687.91;5018816;28;20033;-61
2022/10/24 09:44:46;;;;;;;50.83;6.47;;;;;;;30.03;74.84;97685.22;5016954;28;20131;-61
2022/10/24 09:47:25;;;;;;;48.50;6.03;;;;;;;30.53;73.06;97706.69;5013425;28;20044;-59
2022/10/24 09:49:52;;;;;;;28.20;4.38;;;;;;;30.71;69.58;97703.50;5019477;28;20044;-61
2022/10/24 09:52:24;;;;;;;52.55;5.97;;;;;;;29.92;71.05;97709.94;5013170;28;20549;-62
2022/10/24 09:55:03;;;;;;;40.78;5.15;;;;;;;29.58;71.58;97716.84;5017467;28;20629;-64
2022/10/24 09:57:38;;;;;;;56.78;7.32;;;;;;;31.57;67.06;97716.53;5012973;28;20026;-60
2022/10/24 10:00:04;;;;;;;39.08;5.10;;;;;;;31.25;68.38;97702.72;5018544;28;20025;-60
2022/10/24 10:02:33;;;;;;;45.08;5.88;;;;;;;31.12;67.23;97716.97;5016382;28;20092;-60
2022/10/24 10:05:01;;;;;;;36.78;4.90;;;;;;;31.86;63.77;97717.19;5016598;28;20032;-59
2022/10/24 10:07:35;;;;;;;37.20;5.03;;;;;;;31.15;66.21;97736.47;5015493;28;20044;-62
2022/10/24 10:10:04;;;;;;;34.42;5.07;;;;;;;30.41;69.21;97741.41;5015677;28;20144;-59
2022/10/24 10:12:31;;;;;;;43.97;5.55;;;;;;;31.57;64.03;97756.13;5023582;28;20053;-61
2022/10/24 10:14:58;;;;;;;32.35;5.15;;;;;;;31.61;65.60;97744.72;5021473;28;20052;-60
2022/10/24 10:17:25;;;;;;;41.58;5.90;;;;;;;31.62;63.75;97732.09;5019369;28;20079;-59
2022/10/24 10:19:52;;;;;;;43.42;5.65;;;;;;;33.43;60.33;97749.78;5014285;28;20192;-59
2022/10/24 10:22:25;;;;;;;39.65;5.38;;;;;;;32.77;60.59;97735.47;5016400;28;20081;-60
2022/10/24 10:24:51;;;;;;;46.38;6.28;;;;;;;31.60;64.84;97729.59;5018905;28;20395;-59
2022/10/24 10:27:33;;;;;;;50.78;6.80;;;;;;;31.30;64.48;97729.06;5021243;28;20574;-59
2022/10/24 10:30:10;;;;;;;53.55;7.80;;;;;;;32.54;63.08;97727.78;5019921;28;20087;-60
2022/10/24 10:32:40;;;;;;;49.90;6.63;;;;;;;31.61;64.13;97715.06;5017837;28;20054;-59
2022/10/24 10:35:21;;;;;;;45.78;6.25;;;;;;;31.94;63.16;97714.28;5017419;28;20072;-60
2022/10/24 10:38:00;;;;;;;40.00;5.72;;;;;;;31.42;64.52;97715.84;5019858;28;20037;-57
2022/10/24 10:40:33;;;;;;;41.67;5.85;;;;;;;33.00;59.56;97726.03;5021068;28;20034;-60
2022/10/24 10:43:29;;;;;;;42.90;6.43;;;;;;;31.37;60.78;97747.94;5018206;28;20545;-57
2022/10/24 10:46:13;;;;;;;39.15;5.68;;;;;;;32.75;61.00;97734.81;5016215;28;20038;-58
2022/10/24 10:49:04;;;;;;;49.47;6.40;;;;;;;31.66;64.04;97712.59;5019238;28;20033;-58
2022/10/24 10:51:56;;;;;;;37.67;5.63;;;;;;;32.34;62.33;97719.72;5010241;28;20579;-60
2022/10/24 10:54:24;;;;;;;33.88;5.28;;;;;;;32.92;60.71;97710.91;5019670;28;20063;-59
2022/10/24 10:56:59;;;;;;;38.33;5.68;;;;;;;32.47;61.67;97705.38;5016737;28;20041;-61
2022/10/24 10:59:42;;;;;;;31.92;5.38;;;;;;;33.45;59.26;97699.03;5018675;28;20052;-59
2022/10/24 11:02:14;;;;;;;50.45;6.57;;;;;;;32.40;60.31;97701.84;5015355;28;20083;-59
2022/10/24 11:04:50;;;;;;;38.25;5.63;;;;;;;32.50;60.53;97718.44;5018686;28;20597;-59
2022/10/24 11:07:30;;;;;;;46.17;6.40;;;;;;;32.45;60.69;97721.75;5023246;28;20041;-59
2022/10/24 11:09:58;;;;;;;29.27;5.20;;;;;;;34.17;57.11;97725.84;5018960;28;20132;-58
2022/10/24 11:12:29;;;;;;;46.20;6.63;;;;;;;34.15;55.69;97736.00;5015395;28;20094;-58
2022/10/24 11:15:03;;;;;;;37.75;6.18;;;;;;;33.04;60.62;97735.38;5020496;28;20123;-58
2022/10/24 11:17:53;;;;;;;48.72;7.00;;;;;;;33.50;59.66;97744.34;5013930;28;20038;-58
2022/10/24 11:20:26;;;;;;;46.30;5.72;;;;;;;33.38;59.09;97763.09;5019493;28;20104;-58
2022/10/24 11:22:51;;;;;;;44.92;5.97;;;;;;;33.89;58.56;97773.03;5019791;28;20018;-59
2022/10/24 11:25:38;;;;;;;37.67;5.88;;;;;;;33.63;59.48;97770.47;5015274;28;20083;-58
2022/10/24 11:28:22;;;;;;;42.85;6.07;;;;;;;34.00;56.99;97752.56;5022139;28;20029;-57